createdAt,value
2022-12-01T00:01:36.398Z,36.50
2022-12-01T00:04:03.372Z,36.63
2022-12-01T00:06:30.395Z,36.58
2022-12-01T00:08:57.311Z,37.15
2022-12-01T00:11:24.207Z,37.47
2022-12-01T00:13:51.217Z,37.95
2022-12-01T00:16:19.222Z,36.15
2022-12-01T00:18:46.190Z,37.72
2022-12-01T00:21:13.084Z,36.45
2022-12-01T00:23:39.984Z,36.58
2022-12-01T00:26:06.860Z,37.47
2022-12-01T00:28:33.764Z,38.95
2022-12-01T00:31:00.644Z,36.63
2022-12-01T00:33:27.735Z,37.10
2022-12-01T00:35:54.631Z,37.28
2022-12-01T00:38:21.572Z,37.60
2022-12-01T00:40:48.471Z,36.40
2022-12-01T00:43:15.377Z,36.53
2022-12-01T00:45:42.324Z,36.65
2022-12-01T00:48:09.232Z,36.85
2022-12-01T00:50:36.103Z,37.03
2022-12-01T00:53:03.002Z,39.15
2022-12-01T00:55:29.939Z,39.22
2022-12-01T00:57:56.867Z,37.30
2022-12-01T01:00:27.008Z,37.65
2022-12-01T01:02:54.030Z,38.38
2022-12-01T01:05:21.001Z,38.33
2022-12-01T01:07:47.988Z,36.83
2022-12-01T01:10:14.940Z,37.08
2022-12-01T01:12:41.907Z,37.55
2022-12-01T01:15:08.814Z,36.80
2022-12-01T01:17:35.789Z,38.47
2022-12-01T01:20:02.752Z,38.75
2022-12-01T01:22:29.674Z,37.90
2022-12-01T01:24:56.565Z,38.45
2022-12-01T01:27:23.495Z,37.92
2022-12-01T01:29:50.637Z,37.05
2022-12-01T01:32:17.741Z,37.80
2022-12-01T01:34:44.635Z,37.85
2022-12-01T01:37:11.569Z,38.72
2022-12-01T01:39:38.509Z,38.90
2022-12-01T01:42:05.420Z,38.25
2022-12-01T01:44:32.303Z,38.00
2022-12-01T01:46:59.204Z,38.38
2022-12-01T01:49:26.508Z,38.95
2022-12-01T01:51:53.385Z,39.90
2022-12-01T01:54:20.303Z,39.78
2022-12-01T01:56:47.196Z,41.75
2022-12-01T01:59:14.132Z,41.10
2022-12-01T02:01:41.095Z,39.85
2022-12-01T02:04:08.040Z,38.97
2022-12-01T02:06:34.960Z,40.90
2022-12-01T02:09:01.873Z,39.38
2022-12-01T02:11:28.805Z,39.75
2022-12-01T02:13:55.734Z,38.55
2022-12-01T02:16:22.670Z,38.70
2022-12-01T02:18:49.585Z,40.20
2022-12-01T02:21:16.482Z,38.78
2022-12-01T02:23:43.393Z,38.70
2022-12-01T02:26:10.287Z,39.50
2022-12-01T02:28:37.174Z,38.70
2022-12-01T02:31:04.101Z,41.03
2022-12-01T02:33:31.053Z,40.22
2022-12-01T02:35:57.956Z,39.15
2022-12-01T02:38:24.851Z,39.30
2022-12-01T02:40:51.734Z,37.70
2022-12-01T02:43:18.645Z,37.50
2022-12-01T02:45:45.570Z,40.17
2022-12-01T02:48:12.500Z,38.55
2022-12-01T02:50:39.389Z,38.38
2022-12-01T02:53:06.298Z,39.90
2022-12-01T02:55:33.212Z,40.75
2022-12-01T02:58:00.116Z,39.33
2022-12-01T03:00:27.018Z,38.85
2022-12-01T03:02:54.025Z,38.90
2022-12-01T03:05:20.956Z,39.53
2022-12-01T03:07:47.919Z,37.53
2022-12-01T03:10:14.869Z,39.40
2022-12-01T03:12:41.804Z,39.72
2022-12-01T03:15:08.688Z,40.72
2022-12-01T03:17:35.591Z,37.95
2022-12-01T03:20:02.521Z,38.60
2022-12-01T03:22:29.418Z,38.10
2022-12-01T03:24:56.313Z,39.25
2022-12-01T03:27:23.207Z,38.58
2022-12-01T03:29:50.264Z,38.83
2022-12-01T03:32:17.365Z,39.63
2022-12-01T03:34:44.273Z,39.30
2022-12-01T03:37:11.154Z,39.75
2022-12-01T03:39:38.051Z,40.35
2022-12-01T03:42:04.968Z,39.15
2022-12-01T03:44:31.891Z,40.05
2022-12-01T03:46:58.779Z,38.75
2022-12-01T03:49:25.710Z,39.78
2022-12-01T03:51:52.622Z,39.05
2022-12-01T03:54:19.537Z,38.47
2022-12-01T03:56:46.455Z,39.20
2022-12-01T03:59:13.338Z,39.08
2022-12-01T04:01:40.276Z,38.83
2022-12-01T04:04:07.234Z,39.05
2022-12-01T04:06:34.119Z,39.22
2022-12-01T04:09:01.033Z,39.08
2022-12-01T04:11:32.433Z,37.92
2022-12-01T04:13:59.799Z,37.20
2022-12-01T04:16:26.755Z,38.63
2022-12-01T04:18:53.692Z,36.42
2022-12-01T04:21:20.565Z,37.13
2022-12-01T04:23:47.522Z,36.95
2022-12-01T04:26:15.997Z,38.08
2022-12-01T04:28:43.018Z,37.42
2022-12-01T04:31:09.930Z,37.53
2022-12-01T04:33:36.856Z,37.80
2022-12-01T04:36:03.767Z,36.88
2022-12-01T04:38:31.197Z,36.47
2022-12-01T04:40:58.128Z,36.55
2022-12-01T04:43:26.268Z,36.58
2022-12-01T04:45:53.175Z,36.92
2022-12-01T04:48:20.077Z,38.28
2022-12-01T04:50:46.964Z,37.60
2022-12-01T04:53:13.849Z,37.75
2022-12-01T04:55:40.986Z,35.58
2022-12-01T04:58:07.867Z,35.85
2022-12-01T05:00:34.844Z,35.10
2022-12-01T05:03:01.748Z,38.83
2022-12-01T05:05:28.677Z,36.55
2022-12-01T05:07:55.586Z,36.50
2022-12-01T05:10:22.544Z,37.78
2022-12-01T05:12:49.833Z,35.72
2022-12-01T05:15:16.739Z,35.90
2022-12-01T05:17:43.634Z,36.83
2022-12-01T05:20:10.556Z,36.63
2022-12-01T05:23:04.429Z,38.83
2022-12-01T05:25:24.379Z,39.47
2022-12-01T05:27:51.263Z,37.70
2022-12-01T05:30:18.177Z,38.45
2022-12-01T05:32:49.316Z,38.05
2022-12-01T05:37:45.566Z,36.60
2022-12-01T05:40:12.474Z,38.60
2022-12-01T05:42:40.429Z,41.22
2022-12-01T05:45:07.373Z,36.55
2022-12-01T05:47:34.262Z,37.83
2022-12-01T05:50:05.400Z,38.63
2022-12-01T05:52:32.746Z,36.72
2022-12-01T05:55:02.871Z,37.35
2022-12-01T05:57:29.784Z,39.53
2022-12-01T05:59:56.816Z,38.15
2022-12-01T06:02:23.772Z,38.40
2022-12-01T06:04:50.716Z,37.90
2022-12-01T06:07:17.614Z,36.72
2022-12-01T06:09:46.895Z,36.80
2022-12-01T06:12:17.013Z,37.72
2022-12-01T06:14:43.914Z,35.58
2022-12-01T06:17:10.869Z,36.47
2022-12-01T06:19:37.849Z,33.22
2022-12-01T06:22:04.777Z,36.17
2022-12-01T06:24:31.716Z,36.55
2022-12-01T06:26:58.604Z,36.40
2022-12-01T06:29:25.529Z,36.05
2022-12-01T06:31:52.556Z,37.05
2022-12-01T06:34:19.537Z,36.00
2022-12-01T06:36:46.438Z,36.13
2022-12-01T06:39:13.355Z,34.90
2022-12-01T06:41:40.256Z,36.05
2022-12-01T06:44:07.179Z,36.85
2022-12-01T06:46:34.121Z,35.05
2022-12-01T06:49:01.081Z,33.95
2022-12-01T06:51:27.985Z,33.63
2022-12-01T06:53:55.022Z,34.83
2022-12-01T06:56:21.933Z,36.00
2022-12-01T06:58:51.353Z,33.17
2022-12-01T07:01:18.635Z,33.75
2022-12-01T07:03:45.597Z,33.03
2022-12-01T07:06:12.615Z,34.40
2022-12-01T07:08:39.539Z,33.20
2022-12-01T07:11:06.484Z,33.95
2022-12-01T07:13:34.140Z,31.75
2022-12-01T07:16:01.286Z,30.02
2022-12-01T07:18:28.175Z,29.98
2022-12-01T07:20:55.079Z,32.13
2022-12-01T07:23:21.973Z,29.75
2022-12-01T07:25:48.901Z,29.63
2022-12-01T07:28:15.814Z,31.85
2022-12-01T07:30:42.747Z,30.83
2022-12-01T07:33:09.646Z,31.17
2022-12-01T07:35:42.674Z,30.92
2022-12-01T07:38:09.645Z,31.63
2022-12-01T07:40:36.556Z,31.30
2022-12-01T07:43:03.501Z,32.60
2022-12-01T07:45:30.432Z,30.73
2022-12-01T07:47:57.320Z,31.85
2022-12-01T07:50:24.226Z,32.30
2022-12-01T07:52:51.097Z,32.28
2022-12-01T07:55:18.004Z,30.52
2022-12-01T07:57:45.981Z,31.98
2022-12-01T08:00:12.881Z,30.80
2022-12-01T08:02:39.829Z,32.40
2022-12-01T08:05:06.803Z,29.90
2022-12-01T08:07:33.718Z,32.00
2022-12-01T08:10:00.655Z,30.42
2022-12-01T08:12:33.668Z,31.75
2022-12-01T08:15:14.665Z,32.13
2022-12-01T08:17:41.680Z,33.10
2022-12-01T08:20:08.590Z,31.02
2022-12-01T08:22:35.501Z,33.72
2022-12-01T08:25:02.659Z,33.00
2022-12-01T08:27:29.718Z,33.72
2022-12-01T08:29:56.627Z,32.67
2022-12-01T08:32:23.517Z,33.08
2022-12-01T08:34:53.550Z,31.70
2022-12-01T08:37:20.741Z,31.63
2022-12-01T08:39:47.808Z,32.00
2022-12-01T08:42:14.853Z,31.00
2022-12-01T08:44:41.998Z,32.47
2022-12-01T08:47:21.148Z,34.28
2022-12-01T08:49:48.479Z,34.05
2022-12-01T08:52:15.618Z,31.10
2022-12-01T08:54:42.536Z,32.55
2022-12-01T08:57:09.421Z,31.05
2022-12-01T08:59:36.335Z,32.17
2022-12-01T09:02:06.943Z,32.28
2022-12-01T09:04:34.138Z,31.42
2022-12-01T09:07:01.044Z,29.70
2022-12-01T09:09:28.113Z,31.05
2022-12-01T09:11:55.038Z,30.80
2022-12-01T09:14:22.032Z,27.90
2022-12-01T09:16:49.142Z,27.52
2022-12-01T09:19:22.245Z,25.67
2022-12-01T09:21:51.336Z,23.13
2022-12-01T09:24:18.208Z,22.67
2022-12-01T09:26:45.132Z,20.52
2022-12-01T09:29:12.034Z,19.23
2022-12-01T09:31:38.982Z,17.90
2022-12-01T09:34:05.894Z,17.08
2022-12-01T09:36:32.806Z,17.15
2022-12-01T09:38:59.697Z,17.40
2022-12-01T09:41:26.782Z,17.80
2022-12-01T09:43:53.680Z,19.23
2022-12-01T09:46:20.653Z,18.48
2022-12-01T09:48:50.435Z,17.17
2022-12-01T09:51:19.543Z,18.02
2022-12-01T09:53:46.471Z,17.98
2022-12-01T09:56:13.410Z,17.05
2022-12-01T09:58:40.337Z,18.63
2022-12-01T10:01:07.264Z,17.10
2022-12-01T10:03:35.212Z,18.48
2022-12-01T10:08:50.429Z,18.48
2022-12-01T10:11:17.386Z,18.45
2022-12-01T10:13:48.905Z,18.15
2022-12-01T10:16:15.844Z,18.38
2022-12-01T10:18:42.795Z,18.20
2022-12-01T10:21:09.710Z,17.10
2022-12-01T10:23:36.670Z,18.10
2022-12-01T10:26:03.593Z,17.25
2022-12-01T10:28:30.470Z,16.77
2022-12-01T10:33:48.385Z,16.05
2022-12-01T10:36:15.901Z,16.27
2022-12-01T10:38:42.833Z,17.02
2022-12-01T10:41:09.755Z,16.65
2022-12-01T10:43:36.698Z,16.17
2022-12-01T10:46:03.716Z,16.30
2022-12-01T10:48:32.852Z,15.98
2022-12-01T10:51:02.859Z,16.58
2022-12-01T10:53:29.776Z,16.23
2022-12-01T10:55:56.666Z,16.77
2022-12-01T10:58:23.545Z,16.13
2022-12-01T11:00:59.755Z,15.93
2022-12-01T11:03:27.325Z,16.08
2022-12-01T11:05:54.481Z,17.20
2022-12-01T11:08:21.470Z,16.98
2022-12-01T11:10:48.382Z,16.35
2022-12-01T11:13:15.300Z,15.68
2022-12-01T11:15:44.249Z,14.80
2022-12-01T11:18:11.164Z,13.95
2022-12-01T11:20:38.115Z,14.65
2022-12-01T11:23:05.046Z,15.32
2022-12-01T11:25:31.959Z,14.27
2022-12-01T11:27:58.833Z,13.57
2022-12-01T11:30:25.708Z,14.82
2022-12-01T11:32:52.691Z,13.73
2022-12-01T11:35:19.580Z,13.00
2022-12-01T11:37:54.768Z,14.57
2022-12-01T11:40:27.177Z,14.00
2022-12-01T11:42:54.074Z,13.80
2022-12-01T11:45:20.954Z,14.50
2022-12-01T11:47:47.853Z,13.93
2022-12-01T11:50:14.784Z,14.52
2022-12-01T11:52:41.717Z,13.32
2022-12-01T11:55:10.279Z,13.02
2022-12-01T11:57:37.306Z,13.23
2022-12-01T12:00:04.203Z,13.65
2022-12-01T12:02:31.189Z,13.15
2022-12-01T12:04:58.384Z,13.18
2022-12-01T12:07:25.396Z,13.07
2022-12-01T12:09:52.632Z,13.15
2022-12-01T12:12:19.592Z,12.38
2022-12-01T12:14:46.501Z,12.73
2022-12-01T12:17:13.472Z,12.27
2022-12-01T12:20:06.099Z,12.02
2022-12-01T12:22:27.308Z,13.15
2022-12-01T12:24:54.184Z,11.52
2022-12-01T12:27:21.273Z,12.57
2022-12-01T12:29:48.654Z,12.13
2022-12-01T12:32:15.822Z,13.00
2022-12-01T12:34:42.724Z,11.82
2022-12-01T12:37:09.692Z,11.82
2022-12-01T12:39:36.742Z,11.45
2022-12-01T12:42:03.661Z,12.05
2022-12-01T12:44:36.636Z,12.30
2022-12-01T12:47:04.103Z,13.05
2022-12-01T12:49:31.013Z,12.05
2022-12-01T12:51:57.964Z,12.55
2022-12-01T12:54:24.947Z,11.25
2022-12-01T12:56:53.194Z,11.95
2022-12-01T12:59:20.093Z,11.60
2022-12-01T13:01:47.059Z,12.75
2022-12-01T13:04:14.036Z,12.35
2022-12-01T13:06:40.939Z,12.15
2022-12-01T13:09:07.831Z,10.32
2022-12-01T13:11:34.746Z,12.63
2022-12-01T13:14:01.628Z,12.15
2022-12-01T13:16:28.605Z,13.10
2022-12-01T13:18:55.499Z,12.60
2022-12-01T13:21:22.517Z,12.80
2022-12-01T13:23:49.420Z,13.18
2022-12-01T13:26:16.330Z,12.93
2022-12-01T13:28:43.237Z,13.40
2022-12-01T13:31:10.217Z,12.73
2022-12-01T13:33:37.180Z,13.77
2022-12-01T13:38:50.999Z,14.52
2022-12-01T13:41:17.896Z,13.20
2022-12-01T13:43:44.802Z,13.63
2022-12-01T13:46:11.779Z,15.38
2022-12-01T13:48:38.696Z,13.00
2022-12-01T13:51:05.592Z,14.20
2022-12-01T13:53:32.492Z,14.00
2022-12-01T13:55:59.392Z,14.88
2022-12-01T13:58:26.288Z,14.55
2022-12-01T14:00:53.242Z,14.68
2022-12-01T14:03:20.360Z,14.95
2022-12-01T14:05:47.352Z,14.77
2022-12-01T14:08:19.573Z,14.88
2022-12-01T14:10:49.641Z,15.25
2022-12-01T14:13:16.564Z,16.27
2022-12-01T14:15:43.559Z,15.45
2022-12-01T14:18:10.507Z,14.65
2022-12-01T14:20:37.393Z,16.38
2022-12-01T14:23:04.335Z,17.23
2022-12-01T14:25:31.362Z,17.83
2022-12-01T14:27:58.298Z,20.70
2022-12-01T14:30:25.223Z,21.98
2022-12-01T14:32:52.130Z,21.38
2022-12-01T14:35:19.027Z,21.98
2022-12-01T14:37:45.945Z,21.23
2022-12-01T14:40:12.816Z,19.67
2022-12-01T14:42:39.724Z,21.77
2022-12-01T14:45:06.647Z,22.90
2022-12-01T14:47:33.643Z,22.67
2022-12-01T14:50:00.532Z,22.30
2022-12-01T14:52:27.473Z,21.52
2022-12-01T14:54:54.370Z,22.23
2022-12-01T14:57:21.267Z,21.98
2022-12-01T14:59:48.149Z,22.75
2022-12-01T15:02:15.108Z,23.60
2022-12-01T15:04:42.036Z,22.23
2022-12-01T15:07:08.997Z,22.10
2022-12-01T15:09:36.340Z,22.17
2022-12-01T15:12:03.467Z,21.55
2022-12-01T15:14:30.375Z,22.80
2022-12-01T15:16:57.372Z,22.40
2022-12-01T15:19:24.314Z,22.42
2022-12-01T15:21:51.252Z,23.77
2022-12-01T15:24:18.137Z,23.40
2022-12-01T15:26:45.054Z,21.10
2022-12-01T15:29:11.945Z,21.55
2022-12-01T15:31:39.129Z,23.48
2022-12-01T15:34:06.032Z,22.00
2022-12-01T15:36:32.922Z,22.80
2022-12-01T15:39:05.282Z,21.98
2022-12-01T15:41:33.858Z,21.27
2022-12-01T15:44:00.779Z,21.98
2022-12-01T15:46:30.451Z,21.05
2022-12-01T15:48:57.514Z,21.35
2022-12-01T15:51:25.343Z,21.23
2022-12-01T15:53:52.273Z,21.63
2022-12-01T15:56:19.165Z,21.52
2022-12-01T15:58:46.086Z,22.52
2022-12-01T16:01:13.031Z,22.17
2022-12-01T16:03:40.076Z,22.98
2022-12-01T16:06:06.968Z,22.13
2022-12-01T16:08:33.925Z,20.80
2022-12-01T16:11:00.854Z,20.92
2022-12-01T16:13:27.770Z,21.40
2022-12-01T16:15:54.695Z,22.08
2022-12-01T16:18:21.584Z,21.85
2022-12-01T16:20:53.506Z,22.65
2022-12-01T16:23:20.472Z,21.67
2022-12-01T16:25:47.397Z,22.15
2022-12-01T16:28:14.325Z,23.15
2022-12-01T16:30:41.276Z,23.27
2022-12-01T16:33:08.217Z,23.58
2022-12-01T16:35:35.109Z,22.45
2022-12-01T16:38:02.012Z,22.85
2022-12-01T16:40:28.893Z,21.63
2022-12-01T16:42:55.823Z,22.02
2022-12-01T16:45:22.711Z,22.40
2022-12-01T16:47:49.602Z,22.25
2022-12-01T16:50:16.530Z,21.85
2022-12-01T16:52:44.924Z,23.05
2022-12-01T16:55:12.367Z,22.30
2022-12-01T16:57:39.336Z,22.40
2022-12-01T17:00:06.233Z,22.52
2022-12-01T17:02:33.191Z,21.48
2022-12-01T17:07:59.233Z,22.92
2022-12-01T17:10:26.171Z,25.02
2022-12-01T17:12:53.079Z,24.00
2022-12-01T17:15:19.955Z,24.13
2022-12-01T17:17:46.870Z,24.27
2022-12-01T17:20:13.775Z,24.88
2022-12-01T17:22:40.690Z,24.23
2022-12-01T17:25:07.673Z,25.00
2022-12-01T17:27:34.608Z,25.35
2022-12-01T17:30:01.545Z,25.27
2022-12-01T17:32:28.513Z,24.65
2022-12-01T17:34:55.439Z,23.50
2022-12-01T17:37:22.323Z,25.73
2022-12-01T17:39:49.228Z,26.05
2022-12-01T17:42:16.489Z,25.20
2022-12-01T17:44:43.403Z,24.80
2022-12-01T17:47:10.293Z,25.20
2022-12-01T17:49:37.240Z,25.23
2022-12-01T17:52:04.192Z,26.33
2022-12-01T17:54:31.147Z,26.35
2022-12-01T17:57:03.740Z,28.67
2022-12-01T17:59:30.634Z,27.42
2022-12-01T18:01:57.626Z,26.95
2022-12-01T18:04:24.561Z,28.63
2022-12-01T18:06:54.336Z,28.23
2022-12-01T18:09:25.221Z,28.48
2022-12-01T18:11:52.293Z,28.77
2022-12-01T18:14:25.100Z,28.30
2022-12-01T18:16:52.062Z,27.20
2022-12-01T18:19:18.977Z,27.00
2022-12-01T18:24:40.054Z,27.45
2022-12-01T18:27:06.943Z,27.60
2022-12-01T18:29:33.995Z,25.48
2022-12-01T18:32:00.932Z,24.05
2022-12-01T18:34:27.869Z,26.80
2022-12-01T18:36:54.761Z,25.13
2022-12-01T18:39:21.912Z,24.55
2022-12-01T18:41:48.804Z,23.60
2022-12-01T18:47:09.986Z,21.20
2022-12-01T18:49:38.144Z,22.75
2022-12-01T18:52:05.076Z,22.70
2022-12-01T18:57:30.879Z,23.40
2022-12-01T18:59:57.774Z,22.88
2022-12-01T19:02:24.724Z,24.35
2022-12-01T19:04:51.904Z,25.05
2022-12-01T19:07:19.020Z,25.08
2022-12-01T19:09:45.916Z,24.95
2022-12-01T19:12:12.801Z,25.08
2022-12-01T19:14:39.719Z,24.05
2022-12-01T19:17:06.626Z,23.70
2022-12-01T19:19:37.406Z,22.67
2022-12-01T19:24:31.579Z,23.77
2022-12-01T19:26:58.494Z,23.13
2022-12-01T19:29:25.402Z,24.38
2022-12-01T19:31:52.369Z,24.38
2022-12-01T19:34:19.335Z,23.02
2022-12-01T19:36:46.210Z,21.33
2022-12-01T19:39:13.097Z,23.20
2022-12-01T19:41:40.003Z,23.65
2022-12-01T19:44:06.908Z,22.08
2022-12-01T19:46:33.791Z,24.90
2022-12-01T19:49:00.688Z,22.55
2022-12-01T19:51:27.583Z,21.88
2022-12-01T19:53:54.473Z,22.88
2022-12-01T19:56:21.369Z,25.63
2022-12-01T19:58:48.303Z,22.30
2022-12-01T20:01:15.289Z,21.70
2022-12-01T20:03:42.260Z,23.38
2022-12-01T20:06:09.171Z,22.95
2022-12-01T20:08:39.868Z,23.15
2022-12-01T20:11:06.778Z,22.80
2022-12-01T20:13:33.669Z,22.63
2022-12-01T20:16:06.025Z,22.92
2022-12-01T20:18:33.055Z,22.73
2022-12-01T20:20:59.946Z,23.20
2022-12-01T20:23:26.856Z,23.13
2022-12-01T20:25:53.772Z,23.92
2022-12-01T20:28:20.702Z,23.50
2022-12-01T20:30:47.632Z,22.48
2022-12-01T20:33:14.560Z,23.08
2022-12-01T20:35:41.487Z,23.23
2022-12-01T20:38:08.378Z,23.48
2022-12-01T20:40:35.264Z,23.50
2022-12-01T20:43:02.152Z,22.77
2022-12-01T20:45:29.117Z,23.52
2022-12-01T20:47:56.021Z,23.75
2022-12-01T20:50:22.926Z,22.98
2022-12-01T20:52:49.807Z,22.58
2022-12-01T20:55:16.793Z,25.25
2022-12-01T20:57:43.830Z,24.20
2022-12-01T21:00:10.760Z,25.27
2022-12-01T21:02:37.797Z,22.33
2022-12-01T21:05:04.748Z,23.90
2022-12-01T21:07:31.687Z,26.20
2022-12-01T21:09:58.654Z,25.65
2022-12-01T21:12:25.563Z,25.80
2022-12-01T21:14:52.824Z,26.88
2022-12-01T21:17:19.872Z,27.05
2022-12-01T21:19:55.901Z,28.58
2022-12-01T21:22:22.843Z,27.63
2022-12-01T21:24:49.963Z,28.25
2022-12-01T21:27:17.059Z,28.10
2022-12-01T21:29:46.812Z,28.40
2022-12-01T21:32:13.858Z,27.92
2022-12-01T21:34:40.900Z,28.20
2022-12-01T21:37:07.830Z,28.17
2022-12-01T21:39:34.897Z,28.88
2022-12-01T21:42:15.826Z,25.98
2022-12-01T21:44:42.762Z,27.92
2022-12-01T21:47:09.713Z,27.13
2022-12-01T21:49:36.633Z,26.98
2022-12-01T21:52:04.638Z,25.52
2022-12-01T21:54:31.652Z,25.65
2022-12-01T21:56:58.547Z,25.90
2022-12-01T21:59:25.447Z,25.58
2022-12-01T22:01:52.429Z,25.92
2022-12-01T22:04:19.479Z,24.77
2022-12-01T22:06:49.234Z,24.83
2022-12-01T22:09:16.136Z,24.98
2022-12-01T22:11:43.049Z,24.23
2022-12-01T22:14:09.965Z,24.17
2022-12-01T22:16:37.021Z,25.83
2022-12-01T22:19:04.088Z,23.65
2022-12-01T22:21:31.091Z,23.90
2022-12-01T22:23:59.216Z,24.83
2022-12-01T22:26:26.111Z,25.35
2022-12-01T22:28:52.999Z,25.50
2022-12-01T22:31:19.956Z,24.25
2022-12-01T22:33:46.895Z,23.02
2022-12-01T22:36:13.798Z,24.35
2022-12-01T22:38:40.676Z,23.13
2022-12-01T22:41:07.596Z,23.48
2022-12-01T22:43:34.485Z,23.40
2022-12-01T22:46:01.416Z,22.52
2022-12-01T22:48:28.330Z,22.63
2022-12-01T22:50:55.263Z,22.48
2022-12-01T22:53:22.170Z,24.10
2022-12-01T22:55:49.072Z,23.80
2022-12-01T22:58:15.979Z,22.17
2022-12-01T23:00:42.897Z,22.52
2022-12-01T23:03:09.827Z,22.85
2022-12-01T23:05:36.982Z,23.20
2022-12-01T23:08:03.919Z,25.00
2022-12-01T23:10:30.964Z,23.52
2022-12-01T23:12:57.886Z,24.85
2022-12-01T23:15:24.769Z,23.40
2022-12-01T23:17:51.669Z,23.42
2022-12-01T23:20:18.570Z,22.35
2022-12-01T23:22:45.463Z,22.45
2022-12-01T23:25:12.368Z,24.83
2022-12-01T23:27:39.274Z,23.13
2022-12-01T23:30:06.185Z,24.15
2022-12-01T23:32:33.079Z,24.20
2022-12-01T23:35:00.602Z,23.42
2022-12-01T23:37:27.777Z,24.88
2022-12-01T23:39:54.668Z,24.38
2022-12-01T23:42:21.602Z,24.33
2022-12-01T23:44:48.835Z,26.40
2022-12-01T23:47:16.004Z,24.13
2022-12-01T23:49:42.886Z,24.00
2022-12-01T23:52:09.787Z,25.17
2022-12-01T23:54:36.680Z,25.73
2022-12-01T23:57:03.580Z,24.63
2022-12-01T23:59:30.504Z,24.95
